Time;durP1;ratioP1;P1;durP2;ratioP2;P2;SDS_P1;SDS_P2;PMS_P1;PMS_P2;Temp;Humidity;BMP_temperature;BMP_pressure;BME280_temperature;BME280_humidity;BME280_pressure;Samples;Min_cycle;Max_cycle;Signal;HPM_P1;HPM_P2
2021/09/06 00:00:20;;;;;;;10.05;4.15;;;;;;;12.08;100.00;102122.41;6250161;28;20500;-79
2021/09/06 00:03:21;;;;;;;13.95;5.10;;;;;;;12.02;100.00;102112.13;6250647;28;20140;-77
2021/09/06 00:06:24;;;;;;;7.88;4.15;;;;;;;12.04;100.00;102115.56;6248866;28;20056;-78
2021/09/06 00:09:25;;;;;;;9.55;5.45;;;;;;;11.98;100.00;102114.00;6251389;28;20056;-78
2021/09/06 00:12:26;;;;;;;9.48;4.05;;;;;;;11.99;100.00;102118.38;6250927;28;20072;-79
2021/09/06 00:15:28;;;;;;;8.00;4.70;;;;;;;11.85;100.00;102112.72;6250817;28;20053;-79
2021/09/06 00:18:30;;;;;;;9.57;4.30;;;;;;;11.82;100.00;102104.94;6250905;28;20046;-78
2021/09/06 00:21:33;;;;;;;7.85;4.38;;;;;;;11.71;100.00;102107.06;6249999;28;20417;-79
2021/09/06 00:24:35;;;;;;;9.85;4.68;;;;;;;11.54;100.00;102100.66;6250499;28;20049;-78
2021/09/06 00:27:36;;;;;;;6.45;2.90;;;;;;;11.53;100.00;102106.81;6250779;28;20050;-79
2021/09/06 00:30:38;;;;;;;5.53;3.30;;;;;;;11.47;100.00;102098.28;6250806;28;20054;-78
2021/09/06 00:33:40;;;;;;;5.43;3.50;;;;;;;11.48;100.00;102102.63;6249189;28;20183;-78
2021/09/06 00:36:42;;;;;;;6.60;3.10;;;;;;;11.55;100.00;102097.09;6249809;28;20053;-78
2021/09/06 00:39:44;;;;;;;5.88;2.80;;;;;;;11.48;100.00;102097.38;6250040;28;20413;-78
2021/09/06 00:42:45;;;;;;;6.30;2.88;;;;;;;11.43;100.00;102098.38;6249556;28;20137;-78
2021/09/06 00:45:47;;;;;;;5.50;2.78;;;;;;;11.31;100.00;102093.56;6249103;28;20425;-78
2021/09/06 00:48:49;;;;;;;4.40;2.65;;;;;;;11.26;100.00;102095.47;6250335;28;20053;-77
2021/09/06 00:51:51;;;;;;;5.13;2.80;;;;;;;11.33;100.00;102090.88;6252820;28;20634;-78
2021/09/06 00:54:53;;;;;;;5.13;3.00;;;;;;;11.35;100.00;102086.41;6253989;28;20517;-78
2021/09/06 00:57:55;;;;;;;5.05;2.75;;;;;;;11.33;100.00;102094.38;6255238;28;20049;-78
2021/09/06 01:00:56;;;;;;;5.32;2.70;;;;;;;11.32;100.00;102097.06;6254279;28;20052;-77
2021/09/06 01:03:58;;;;;;;5.30;2.22;;;;;;;11.32;100.00;102097.06;6253614;28;20065;-78
2021/09/06 01:07:00;;;;;;;4.95;2.70;;;;;;;11.31;100.00;102095.31;6253036;28;20050;-78
2021/09/06 01:10:02;;;;;;;4.78;2.72;;;;;;;11.29;100.00;102100.66;6253431;28;20060;-78
2021/09/06 01:13:03;;;;;;;5.20;2.70;;;;;;;11.27;100.00;102099.84;6254894;28;20057;-78
2021/09/06 01:16:05;;;;;;;4.88;2.63;;;;;;;11.22;100.00;102101.78;6255214;28;20544;-79
2021/09/06 01:19:06;;;;;;;3.17;2.13;;;;;;;11.20;100.00;102106.22;6254743;28;20424;-78
2021/09/06 01:22:09;;;;;;;3.38;2.50;;;;;;;11.12;100.00;102098.59;6254759;28;20053;-79
2021/09/06 01:25:14;;;;;;;4.25;2.55;;;;;;;11.10;100.00;102107.47;6254922;28;20056;-78
2021/09/06 01:28:18;;;;;;;3.88;2.40;;;;;;;11.06;100.00;102111.09;6254936;28;20077;-78
2021/09/06 01:31:19;;;;;;;4.32;2.35;;;;;;;11.05;100.00;102104.97;6255195;28;20052;-77
2021/09/06 01:34:21;;;;;;;4.47;2.08;;;;;;;11.02;100.00;102097.19;6254435;28;20526;-79
2021/09/06 01:37:22;;;;;;;2.63;2.00;;;;;;;10.99;100.00;102097.31;6254595;28;20046;-78
2021/09/06 01:40:25;;;;;;;3.92;2.22;;;;;;;10.99;100.00;102102.56;6253996;28;20056;-78
2021/09/06 01:43:28;;;;;;;4.45;1.90;;;;;;;10.92;100.00;102099.25;6254781;28;20059;-78
2021/09/06 01:46:29;;;;;;;5.07;2.53;;;;;;;10.88;100.00;102102.03;6254438;28;20389;-78
2021/09/06 01:49:31;;;;;;;3.15;2.30;;;;;;;10.81;100.00;102098.78;6253451;28;20057;-78
2021/09/06 01:52:32;;;;;;;3.63;2.30;;;;;;;10.81;100.00;102096.16;6253614;28;20054;-78
2021/09/06 01:55:33;;;;;;;5.25;2.63;;;;;;;10.78;100.00;102088.34;6252997;28;20400;-78
2021/09/06 01:58:36;;;;;;;4.25;2.80;;;;;;;10.73;100.00;102085.00;6252806;28;20049;-78
2021/09/06 02:01:37;;;;;;;4.40;2.05;;;;;;;10.72;100.00;102092.91;6249957;28;20053;-79
2021/09/06 02:04:39;;;;;;;3.35;2.55;;;;;;;10.65;100.00;102093.13;6250773;28;20452;-78
2021/09/06 02:07:40;;;;;;;3.40;2.45;;;;;;;10.59;100.00;102088.09;6250117;28;20046;-79
2021/09/06 02:10:41;;;;;;;2.75;2.13;;;;;;;10.45;100.00;102090.28;6250656;28;20053;-78
2021/09/06 02:13:44;;;;;;;3.55;1.90;;;;;;;10.32;100.00;102092.44;6249860;28;20441;-78
2021/09/06 02:16:46;;;;;;;4.07;2.25;;;;;;;10.37;100.00;102094.91;6250105;28;20041;-78
2021/09/06 02:19:47;;;;;;;3.25;2.28;;;;;;;10.40;100.00;102097.44;6250514;28;20045;-77
2021/09/06 02:22:48;;;;;;;7.45;3.05;;;;;;;10.38;100.00;102101.88;6250154;28;20409;-79
2021/09/06 02:25:50;;;;;;;5.65;3.20;;;;;;;10.30;100.00;102104.72;6249200;28;20386;-77
2021/09/06 02:28:52;;;;;;;8.70;3.35;;;;;;;10.25;100.00;102097.91;6250392;28;20049;-78
2021/09/06 02:31:55;;;;;;;7.78;2.90;;;;;;;10.18;100.00;102098.97;6248153;28;20057;-77
2021/09/06 02:34:56;;;;;;;6.10;2.55;;;;;;;10.13;100.00;102101.75;6228983;28;20042;-79
2021/09/06 02:37:57;;;;;;;7.65;2.97;;;;;;;10.04;100.00;102095.00;6238763;28;20041;-77
2021/09/06 02:40:59;;;;;;;6.28;3.40;;;;;;;10.13;100.00;102094.72;6225046;28;20060;-78
2021/09/06 02:44:01;;;;;;;6.70;3.35;;;;;;;10.16;100.00;102097.25;6239841;28;20424;-78
2021/09/06 02:47:03;;;;;;;5.65;2.70;;;;;;;10.06;100.00;102098.44;6237388;28;20042;-78
2021/09/06 02:50:05;;;;;;;8.05;3.45;;;;;;;10.02;100.00;102098.56;6242206;28;20053;-78
2021/09/06 02:53:07;;;;;;;6.25;3.03;;;;;;;9.89;100.00;102103.31;6244900;28;20416;-78
2021/09/06 02:56:08;;;;;;;5.75;3.00;;;;;;;9.73;100.00;102102.88;6236017;28;20061;-77
2021/09/06 02:59:11;;;;;;;5.97;2.78;;;;;;;9.73;100.00;102099.41;6239016;28;20056;-80
2021/09/06 03:02:13;;;;;;;5.18;2.85;;;;;;;9.82;100.00;102093.91;6238135;28;20053;-78
2021/09/06 03:05:14;;;;;;;5.25;2.70;;;;;;;9.70;100.00;102100.34;6242576;28;20053;-77
2021/09/06 03:08:16;;;;;;;4.63;2.80;;;;;;;9.64;100.00;102097.91;6237262;28;20057;-77
2021/09/06 03:11:22;;;;;;;4.25;2.75;;;;;;;9.70;100.00;102102.97;6237950;28;20054;-78
2021/09/06 03:14:25;;;;;;;6.15;3.47;;;;;;;9.66;100.00;102103.94;6234338;28;20045;-78
2021/09/06 03:17:26;;;;;;;5.35;3.00;;;;;;;9.73;100.00;102102.03;6245032;28;20041;-79
2021/09/06 03:20:27;;;;;;;6.47;3.30;;;;;;;9.84;100.00;102103.44;6240551;28;20053;-80
2021/09/06 03:23:29;;;;;;;6.50;3.22;;;;;;;9.86;100.00;102103.41;6248681;28;20050;-78
2021/09/06 03:26:30;;;;;;;5.13;2.97;;;;;;;9.79;100.00;102109.72;6248512;28;20048;-78
2021/09/06 03:29:33;;;;;;;5.07;2.80;;;;;;;9.73;100.00;102107.28;6241836;28;20052;-77
2021/09/06 03:32:34;;;;;;;7.00;3.47;;;;;;;9.71;100.00;102106.44;6244725;28;20054;-78
2021/09/06 03:35:35;;;;;;;7.30;3.42;;;;;;;9.75;100.00;102093.19;6248420;28;20489;-78
2021/09/06 03:38:37;;;;;;;6.85;3.00;;;;;;;9.77;100.00;102103.66;6248136;28;20042;-77
2021/09/06 03:41:39;;;;;;;4.55;2.50;;;;;;;9.73;100.00;102104.66;6248006;28;20068;-78
2021/09/06 03:44:41;;;;;;;7.22;3.22;;;;;;;9.51;100.00;102100.00;6247923;28;20440;-78
2021/09/06 03:47:43;;;;;;;3.20;2.17;;;;;;;9.34;100.00;102097.81;6240497;28;20489;-78
2021/09/06 03:50:44;;;;;;;4.88;2.58;;;;;;;9.24;100.00;102088.47;6239517;28;20049;-79
2021/09/06 03:53:45;;;;;;;5.20;2.72;;;;;;;9.11;100.00;102092.31;6247495;28;20054;-78
2021/09/06 03:56:47;;;;;;;5.45;2.63;;;;;;;9.10;100.00;102101.94;6247919;28;20052;-81
2021/09/06 03:59:49;;;;;;;4.45;2.45;;;;;;;9.19;100.00;102100.00;6237374;28;20049;-79
2021/09/06 04:02:51;;;;;;;5.65;2.63;;;;;;;9.30;100.00;102095.31;6232367;28;20057;-80
2021/09/06 04:05:52;;;;;;;3.67;2.22;;;;;;;9.28;100.00;102103.22;6237168;28;20050;-79
2021/09/06 04:08:53;;;;;;;3.25;2.35;;;;;;;9.09;100.00;102113.34;6246750;28;20049;-79
2021/09/06 04:11:55;;;;;;;4.45;2.45;;;;;;;9.05;100.00;102111.69;6247275;28;20060;-80
2021/09/06 04:14:57;;;;;;;5.90;3.38;;;;;;;9.22;100.00;102108.66;6247389;28;20056;-79
2021/09/06 04:17:59;;;;;;;5.15;2.25;;;;;;;9.29;100.00;102118.06;6243464;28;20520;-79
2021/09/06 04:21:00;;;;;;;5.93;2.85;;;;;;;9.30;100.00;102117.16;6239048;28;20060;-79
2021/09/06 04:24:02;;;;;;;3.97;2.55;;;;;;;9.20;100.00;102120.91;6247425;28;20060;-80
2021/09/06 04:27:03;;;;;;;5.30;2.60;;;;;;;9.15;100.00;102115.78;6250883;28;20408;-79
2021/09/06 04:30:07;;;;;;;5.72;2.70;;;;;;;9.13;100.00;102119.38;6251781;28;20052;-79
2021/09/06 04:33:08;;;;;;;5.03;3.05;;;;;;;9.28;100.00;102123.34;6251621;28;20602;-80
2021/09/06 04:36:10;;;;;;;6.07;2.80;;;;;;;9.38;100.00;102123.06;6251765;28;20057;-80
2021/09/06 04:39:11;;;;;;;6.82;3.55;;;;;;;9.49;100.00;102124.53;6252023;28;20049;-79
2021/09/06 04:42:13;;;;;;;4.90;2.55;;;;;;;9.55;100.00;102124.41;6243936;28;20054;-80
2021/09/06 04:45:16;;;;;;;5.68;2.75;;;;;;;9.52;100.00;102119.22;6249390;28;20140;-80
2021/09/06 04:48:18;;;;;;;6.32;2.95;;;;;;;9.49;100.00;102117.53;6238237;28;20121;-79
2021/09/06 04:51:19;;;;;;;5.03;2.35;;;;;;;9.49;100.00;102128.03;6246338;28;20053;-79
2021/09/06 04:54:21;;;;;;;5.00;2.47;;;;;;;9.39;100.00;102123.94;6246284;28;20056;-79
2021/09/06 04:57:22;;;;;;;5.40;2.60;;;;;;;9.25;100.00;102124.28;6216774;28;20459;-77
2021/09/06 05:00:25;;;;;;;5.65;2.65;;;;;;;9.22;100.00;102128.75;6216848;28;20093;-78
2021/09/06 05:03:27;;;;;;;3.75;1.90;;;;;;;9.23;100.00;102130.50;6213608;28;20080;-77
2021/09/06 05:06:28;;;;;;;5.03;2.47;;;;;;;9.21;100.00;102127.03;6222060;28;20945;-79
2021/09/06 05:09:29;;;;;;;8.23;3.58;;;;;;;9.29;100.00;102132.94;6224521;28;20405;-77
2021/09/06 05:12:31;;;;;;;4.32;2.38;;;;;;;9.28;100.00;102131.22;6214953;28;20516;-80
2021/09/06 05:15:34;;;;;;;4.65;2.50;;;;;;;9.17;100.00;102147.22;6237189;28;20049;-80
2021/09/06 05:18:35;;;;;;;4.82;2.63;;;;;;;9.17;100.00;102141.09;6241167;28;20144;-80
2021/09/06 05:21:36;;;;;;;4.15;2.72;;;;;;;9.29;100.00;102144.28;6239735;28;20046;-79
2021/09/06 05:24:39;;;;;;;5.28;2.55;;;;;;;9.35;100.00;102138.03;6204103;28;20046;-79
2021/09/06 05:27:40;;;;;;;5.13;2.60;;;;;;;9.44;100.00;102136.91;6218448;28;20042;-77
2021/09/06 05:30:43;;;;;;;4.47;2.67;;;;;;;9.49;100.00;102137.66;6235479;28;20050;-79
2021/09/06 05:33:45;;;;;;;6.18;2.67;;;;;;;9.53;100.00;102136.69;6239511;28;20416;-77
2021/09/06 05:36:46;;;;;;;6.50;3.20;;;;;;;9.56;100.00;102153.22;6241193;28;20056;-78
2021/09/06 05:39:47;;;;;;;9.57;2.63;;;;;;;9.55;100.00;102148.00;6234047;28;20050;-78
2021/09/06 05:42:48;;;;;;;5.63;2.55;;;;;;;9.59;100.00;102149.66;6232483;28;20049;-79
2021/09/06 05:45:51;;;;;;;6.40;3.13;;;;;;;9.59;100.00;102153.13;6237625;28;20046;-80
2021/09/06 05:48:52;;;;;;;5.63;2.63;;;;;;;9.45;100.00;102157.00;6240768;28;20485;-80
2021/09/06 05:51:54;;;;;;;4.43;2.13;;;;;;;9.36;100.00;102158.13;6234397;28;20053;-78
2021/09/06 05:54:55;;;;;;;7.88;2.40;;;;;;;9.36;100.00;102166.00;6239243;28;20048;-78
2021/09/06 05:57:57;;;;;;;5.07;2.28;;;;;;;9.46;100.00;102167.47;6268392;23;20052;-75
2021/09/06 06:00:59;;;;;;;5.57;2.85;;;;;;;9.52;100.00;102175.19;6229104;28;20096;-74
2021/09/06 06:04:01;;;;;;;4.95;2.88;;;;;;;9.54;100.00;102178.66;6260174;28;20056;-74
2021/09/06 06:07:03;;;;;;;5.10;2.65;;;;;;;9.58;100.00;102175.03;6236319;28;20045;-75
2021/09/06 06:10:05;;;;;;;6.43;2.67;;;;;;;9.63;100.00;102169.69;6225119;28;20050;-75
2021/09/06 06:13:06;;;;;;;4.95;2.70;;;;;;;9.71;100.00;102174.69;6218582;28;20054;-75
2021/09/06 06:16:10;;;;;;;15.32;6.85;;;;;;;9.75;100.00;102173.72;6237795;28;20056;-75
2021/09/06 06:19:11;;;;;;;5.82;3.28;;;;;;;9.79;100.00;102178.00;6215572;28;20048;-75
2021/09/06 06:22:13;;;;;;;5.18;2.85;;;;;;;9.82;100.00;102165.63;6229000;28;20052;-75
2021/09/06 06:25:14;;;;;;;5.15;2.63;;;;;;;9.95;100.00;102174.06;6233724;28;20404;-75
2021/09/06 06:28:16;;;;;;;5.60;2.92;;;;;;;10.08;100.00;102172.81;6234309;28;20042;-75
2021/09/06 06:31:18;;;;;;;6.10;3.17;;;;;;;10.15;100.00;102173.47;6239682;28;20060;-75
2021/09/06 06:34:20;;;;;;;5.72;3.22;;;;;;;10.14;100.00;102166.50;6234022;28;20056;-75
2021/09/06 06:37:21;;;;;;;6.13;3.10;;;;;;;10.29;100.00;102170.47;6238288;28;20045;-75
2021/09/06 06:40:22;;;;;;;7.03;2.97;;;;;;;10.42;100.00;102174.47;6238639;28;20046;-75
2021/09/06 06:43:24;;;;;;;8.40;3.10;;;;;;;10.54;100.00;102171.47;6239278;28;20049;-75
2021/09/06 06:46:27;;;;;;;9.00;3.63;;;;;;;10.67;100.00;102177.19;6247588;28;20460;-75
2021/09/06 06:49:28;;;;;;;4.78;2.60;;;;;;;10.74;100.00;102181.38;6247074;28;20048;-75
2021/09/06 06:52:29;;;;;;;5.30;3.28;;;;;;;10.75;100.00;102176.97;6245572;28;20052;-75
2021/09/06 06:55:31;;;;;;;5.70;3.35;;;;;;;10.74;100.00;102181.38;6239019;28;20050;-77
2021/09/06 06:58:32;;;;;;;6.93;3.33;;;;;;;10.76;100.00;102178.69;6247079;28;20053;-75
2021/09/06 07:01:35;;;;;;;11.70;3.70;;;;;;;10.83;100.00;102183.72;6247533;28;20049;-75
2021/09/06 07:04:36;;;;;;;10.60;4.10;;;;;;;10.90;100.00;102185.25;6237627;28;20045;-77
2021/09/06 07:07:38;;;;;;;9.20;3.35;;;;;;;11.01;100.00;102182.28;6238790;28;20057;-75
2021/09/06 07:10:39;;;;;;;9.88;3.65;;;;;;;11.13;100.00;102183.66;6246972;28;20065;-76
2021/09/06 07:13:40;;;;;;;8.40;3.88;;;;;;;11.21;100.00;102189.50;6236295;28;20048;-74
2021/09/06 07:16:43;;;;;;;7.88;3.90;;;;;;;11.30;100.00;102188.34;6247021;28;20417;-76
2021/09/06 07:19:44;;;;;;;8.85;3.78;;;;;;;11.40;100.00;102198.53;6241450;28;20042;-76
2021/09/06 07:22:46;;;;;;;8.93;3.92;;;;;;;11.50;100.00;102199.09;6236842;28;20068;-73
2021/09/06 07:25:47;;;;;;;12.55;5.15;;;;;;;11.58;100.00;102191.78;6246737;28;20069;-76
2021/09/06 07:28:49;;;;;;;13.73;4.55;;;;;;;11.65;100.00;102189.81;6246773;28;20416;-74
2021/09/06 07:31:51;;;;;;;11.07;4.75;;;;;;;11.73;100.00;102186.91;6246887;28;20049;-76
2021/09/06 07:34:53;;;;;;;9.02;4.13;;;;;;;11.82;100.00;102191.84;6246616;28;20045;-76
2021/09/06 07:37:54;;;;;;;11.63;4.88;;;;;;;11.89;100.00;102194.22;6238355;28;20057;-76
2021/09/06 07:40:56;;;;;;;7.15;3.95;;;;;;;11.99;100.00;102199.16;6246931;28;20053;-76
2021/09/06 07:43:57;;;;;;;12.32;4.68;;;;;;;12.07;100.00;102191.84;6246438;28;20060;-74
2021/09/06 07:47:00;;;;;;;10.35;4.93;;;;;;;12.16;100.00;102200.28;6246482;28;20437;-74
2021/09/06 07:50:01;;;;;;;9.32;4.60;;;;;;;12.25;100.00;102196.44;6246578;28;20046;-74
2021/09/06 07:53:02;;;;;;;9.82;5.70;;;;;;;12.35;100.00;102197.84;6246375;28;20052;-74
2021/09/06 07:56:04;;;;;;;11.43;4.68;;;;;;;12.42;100.00;102199.31;6224288;28;20398;-75
2021/09/06 07:59:06;;;;;;;13.20;5.35;;;;;;;12.51;100.00;102197.25;6205021;28;20485;-77
2021/09/06 08:02:08;;;;;;;11.48;5.13;;;;;;;12.61;100.00;102193.34;6227255;28;20205;-75
2021/09/06 08:05:10;;;;;;;10.60;4.82;;;;;;;12.71;100.00;102194.69;6206585;28;20051;-76
2021/09/06 08:08:14;;;;;;;11.07;5.38;;;;;;;12.80;100.00;102199.59;6202616;28;20051;-76
2021/09/06 08:11:15;;;;;;;15.80;5.53;;;;;;;12.88;100.00;102205.44;6202373;28;20502;-75
2021/09/06 08:14:17;;;;;;;17.52;5.82;;;;;;;12.97;100.00;102204.22;6226713;28;20050;-75
2021/09/06 08:17:20;;;;;;;11.75;4.80;;;;;;;13.07;100.00;102207.34;6226535;28;20061;-75
2021/09/06 08:20:23;;;;;;;11.48;4.88;;;;;;;13.16;100.00;102215.75;6226696;28;20053;-76
2021/09/06 08:23:24;;;;;;;11.10;5.57;;;;;;;13.28;100.00;102216.22;6226500;28;20049;-76
2021/09/06 08:26:26;;;;;;;16.27;5.45;;;;;;;13.35;100.00;102228.22;6226495;28;20073;-76
2021/09/06 08:29:27;;;;;;;14.80;5.78;;;;;;;13.43;100.00;102228.78;6217358;28;20050;-76
2021/09/06 08:32:30;;;;;;;13.68;5.45;;;;;;;13.56;100.00;102227.34;6202368;28;20053;-73
2021/09/06 08:35:31;;;;;;;10.63;4.88;;;;;;;13.65;100.00;102231.38;6202963;28;20054;-77
2021/09/06 08:38:32;;;;;;;9.75;4.75;;;;;;;13.76;100.00;102236.19;6202242;28;20051;-76
2021/09/06 08:41:34;;;;;;;14.93;5.05;;;;;;;13.87;100.00;102228.69;6202708;28;20057;-76
2021/09/06 08:44:35;;;;;;;13.02;6.07;;;;;;;13.91;100.00;102230.28;6201859;28;20054;-75
2021/09/06 08:47:38;;;;;;;12.88;5.60;;;;;;;13.98;100.00;102230.84;6202687;28;20049;-77
2021/09/06 08:50:42;;;;;;;13.68;5.47;;;;;;;14.04;100.00;102238.53;6202114;28;20061;-76
2021/09/06 08:53:43;;;;;;;11.27;5.50;;;;;;;14.15;100.00;102236.25;6201848;28;20140;-76
2021/09/06 08:56:47;;;;;;;17.48;7.07;;;;;;;14.23;100.00;102238.56;6201667;28;20181;-76
2021/09/06 08:59:56;;;;;;;13.05;5.10;;;;;;;14.51;100.00;102236.41;6201932;28;20522;-76
2021/09/06 09:03:00;;;;;;;14.40;5.63;;;;;;;14.60;100.00;102238.63;6206123;28;20052;-76
2021/09/06 09:06:02;;;;;;;11.23;4.88;;;;;;;14.67;100.00;102236.53;6225402;28;20619;-76
2021/09/06 09:09:04;;;;;;;11.25;4.45;;;;;;;14.73;100.00;102236.28;6226101;28;20046;-77
2021/09/06 09:12:08;;;;;;;8.25;4.78;;;;;;;14.80;100.00;102240.34;6225046;28;20057;-77
2021/09/06 09:15:10;;;;;;;11.55;6.20;;;;;;;14.86;100.00;102239.22;6225655;28;20053;-76
2021/09/06 09:18:23;;;;;;;12.50;4.90;;;;;;;14.94;100.00;102245.88;6225298;28;20416;-76
2021/09/06 09:21:24;;;;;;;8.13;4.30;;;;;;;14.90;100.00;102249.59;6226126;28;20066;-77
2021/09/06 09:24:25;;;;;;;11.50;4.57;;;;;;;14.88;100.00;102250.56;6225473;28;20128;-78
2021/09/06 09:27:31;;;;;;;9.55;4.53;;;;;;;14.88;100.00;102245.28;6227117;28;20414;-79
2021/09/06 09:30:35;;;;;;;10.80;4.03;;;;;;;14.93;100.00;102240.63;6229901;28;20045;-80
2021/09/06 09:33:45;;;;;;;11.80;4.80;;;;;;;15.02;100.00;102244.63;6244119;28;20059;-78
2021/09/06 09:36:48;;;;;;;8.85;4.13;;;;;;;15.07;100.00;102240.81;6251916;28;20060;-80
2021/09/06 09:39:54;;;;;;;9.48;4.80;;;;;;;15.13;100.00;102239.69;6253806;28;20092;-79
2021/09/06 09:42:55;;;;;;;12.20;5.43;;;;;;;15.22;100.00;102237.44;6252551;28;20485;-78
2021/09/06 09:46:02;;;;;;;8.95;4.57;;;;;;;15.34;100.00;102232.47;6252406;28;20061;-79
2021/09/06 09:49:15;;;;;;;10.40;4.70;;;;;;;15.42;100.00;102235.59;6253661;28;20132;-78
2021/09/06 09:52:18;;;;;;;12.02;4.95;;;;;;;15.59;100.00;102227.66;6241350;28;20054;-77
2021/09/06 09:55:20;;;;;;;10.65;4.78;;;;;;;15.72;100.00;102230.56;6229435;28;20068;-78
2021/09/06 09:58:21;;;;;;;12.30;5.43;;;;;;;15.94;99.28;102238.25;6219968;28;20046;-78
2021/09/06 10:01:22;;;;;;;9.65;5.03;;;;;;;16.01;98.92;102231.72;6202128;28;20050;-78
2021/09/06 10:04:29;;;;;;;10.35;4.63;;;;;;;16.24;99.80;102230.50;6209085;28;20058;-78
2021/09/06 10:07:34;;;;;;;10.35;5.15;;;;;;;16.31;99.17;102237.19;6203224;28;20058;-80
2021/09/06 10:10:37;;;;;;;8.57;5.00;;;;;;;16.33;97.41;102223.84;6206465;28;20054;-79
2021/09/06 10:13:40;;;;;;;9.48;4.43;;;;;;;16.53;92.56;102220.09;6226910;28;20049;-79
2021/09/06 10:16:42;;;;;;;12.15;4.97;;;;;;;16.59;94.40;102214.47;6225519;28;20049;-80
2021/09/06 10:19:48;;;;;;;12.65;5.20;;;;;;;16.66;93.86;102211.34;6226750;28;20053;-79
2021/09/06 10:23:02;;;;;;;9.75;4.88;;;;;;;16.88;92.47;102215.50;6224742;28;20050;-78
2021/09/06 10:26:09;;;;;;;8.25;4.40;;;;;;;17.16;90.60;102212.13;6226443;28;20098;-79
2021/09/06 10:29:18;;;;;;;10.20;4.75;;;;;;;17.53;82.67;102204.66;6226392;28;20050;-78
2021/09/06 10:32:20;;;;;;;8.93;4.25;;;;;;;17.52;82.75;102208.28;6227882;28;20050;-78
2021/09/06 10:35:27;;;;;;;12.52;4.18;;;;;;;17.46;87.32;102210.34;6228771;28;20147;-78
2021/09/06 10:38:37;;;;;;;7.93;3.80;;;;;;;17.57;86.65;102206.19;6203940;28;20046;-78
2021/09/06 10:41:47;;;;;;;10.15;4.88;;;;;;;17.93;81.07;102208.47;6218779;28;20089;-78
2021/09/06 10:44:55;;;;;;;;;;;;;;;17.79;81.66;102200.50;6227131;28;20045;-79
2021/09/06 10:48:04;;;;;;;5.47;3.35;;;;;;;17.80;84.50;102202.19;6237434;28;19920;-78
2021/09/06 10:51:09;;;;;;;4.35;2.80;;;;;;;18.03;77.58;102195.47;6230326;28;20650;-79
2021/09/06 10:54:10;;;;;;;6.13;2.65;;;;;;;18.07;75.46;102197.00;6241535;28;20046;-78
2021/09/06 10:57:14;;;;;;;5.95;3.00;;;;;;;18.20;77.69;102205.94;6246649;28;20049;-80
2021/09/06 11:00:17;;;;;;;6.47;3.40;;;;;;;18.28;76.16;102195.66;6247492;28;20050;-80
2021/09/06 11:03:19;;;;;;;6.88;3.67;;;;;;;18.37;74.76;102187.09;6230364;28;20080;-78
2021/09/06 11:06:25;;;;;;;7.22;3.30;;;;;;;18.35;76.44;102188.13;6225260;28;20424;-78
2021/09/06 11:09:28;;;;;;;3.67;2.35;;;;;;;18.62;71.03;102186.41;6228302;28;20071;-79
2021/09/06 11:12:29;;;;;;;4.65;2.28;;;;;;;18.36;69.57;102179.22;6230610;28;20075;-79
2021/09/06 11:15:32;;;;;;;7.53;2.92;;;;;;;18.27;68.62;102178.00;6230056;28;20046;-78
2021/09/06 11:18:35;;;;;;;5.32;2.53;;;;;;;18.19;69.85;102178.47;6228746;28;20050;-79
2021/09/06 11:21:37;;;;;;;4.85;2.95;;;;;;;18.32;68.55;102183.88;6232568;28;20531;-80
2021/09/06 11:24:39;;;;;;;3.33;1.77;;;;;;;18.57;67.67;102188.47;6237403;28;20052;-80
2021/09/06 11:27:40;;;;;;;4.07;1.88;;;;;;;18.86;65.83;102193.78;6247952;28;20053;-78
2021/09/06 11:30:43;;;;;;;6.20;1.70;;;;;;;19.04;64.92;102192.59;6253208;28;20412;-78
2021/09/06 11:33:45;;;;;;;4.70;1.98;;;;;;;19.29;65.02;102185.59;6254379;28;20053;-78
2021/09/06 11:36:48;;;;;;;3.33;2.05;;;;;;;19.25;65.77;102187.63;6255711;28;20073;-80
2021/09/06 11:39:51;;;;;;;4.18;2.45;;;;;;;19.54;62.15;102177.66;6253757;28;20049;-80
2021/09/06 11:42:53;;;;;;;3.97;2.38;;;;;;;19.78;60.11;102177.81;6233755;28;20060;-80
2021/09/06 11:45:59;;;;;;;4.88;2.35;;;;;;;19.86;63.99;102178.16;6231032;28;20054;-79
2021/09/06 11:49:02;;;;;;;4.22;2.10;;;;;;;19.56;65.69;102178.41;6231454;28;20085;-78
2021/09/06 11:52:10;;;;;;;4.40;2.58;;;;;;;19.38;67.79;102183.19;6231495;28;20050;-79
2021/09/06 11:55:14;;;;;;;4.88;2.47;;;;;;;19.15;67.03;102179.38;6231494;28;20046;-81
2021/09/06 11:58:15;;;;;;;5.38;2.35;;;;;;;18.94;69.59;102195.00;6284880;22;20038;-78
2021/09/06 12:01:17;;;;;;;5.93;2.05;;;;;;;18.80;69.13;102183.50;6275932;28;20049;-77
2021/09/06 12:04:18;;;;;;;4.95;2.70;;;;;;;18.65;71.06;102193.31;6258600;28;20050;-77
2021/09/06 12:07:21;;;;;;;7.35;2.92;;;;;;;18.56;70.30;102186.78;6259971;28;20481;-79
2021/09/06 12:10:27;;;;;;;3.10;2.00;;;;;;;18.50;72.28;102189.84;6250481;28;20496;-78
2021/09/06 12:13:34;;;;;;;4.50;2.17;;;;;;;18.64;69.56;102191.63;6252110;28;20060;-79
2021/09/06 12:16:37;;;;;;;4.50;2.28;;;;;;;18.94;67.83;102191.47;6252187;28;20060;-79
2021/09/06 12:19:43;;;;;;;4.38;2.30;;;;;;;19.25;71.22;102192.94;6251002;28;20049;-81
2021/09/06 12:22:54;;;;;;;6.43;2.67;;;;;;;19.65;66.46;102195.63;6251011;28;20053;-79
2021/09/06 12:25:56;;;;;;;5.32;2.90;;;;;;;19.55;64.75;102202.53;6253313;28;20125;-81
2021/09/06 12:28:57;;;;;;;7.88;2.85;;;;;;;19.65;64.80;102201.81;6256123;28;20048;-76
2021/09/06 12:31:59;;;;;;;3.38;1.98;;;;;;;19.61;65.86;102205.66;6270931;28;20093;-78
2021/09/06 12:35:00;;;;;;;4.93;2.45;;;;;;;20.05;66.30;102201.72;6271571;28;20045;-79
2021/09/06 12:38:05;;;;;;;6.63;3.00;;;;;;;20.45;62.09;102194.41;6268742;28;20079;-78
2021/09/06 12:41:07;;;;;;;4.60;2.78;;;;;;;20.34;61.79;102196.97;6270401;28;20045;-77
2021/09/06 12:44:08;;;;;;;4.03;2.33;;;;;;;20.19;67.33;102198.06;6269472;28;20053;-79
2021/09/06 12:47:09;;;;;;;6.07;3.65;;;;;;;19.93;64.99;102192.75;6270800;28;20046;-77
2021/09/06 12:50:11;;;;;;;4.30;2.05;;;;;;;19.80;63.58;102197.22;6267857;28;20046;-77
2021/09/06 12:53:14;;;;;;;3.38;1.63;;;;;;;20.08;62.35;102190.84;6261504;28;20045;-78
2021/09/06 12:56:15;;;;;;;5.68;2.15;;;;;;;20.57;61.49;102191.84;6255681;28;20405;-80
2021/09/06 12:59:17;;;;;;;4.30;2.05;;;;;;;20.93;57.01;102175.75;6252223;28;20045;-79
2021/09/06 13:02:18;;;;;;;3.17;1.58;;;;;;;21.35;59.49;102186.03;6244210;28;20060;-80
2021/09/06 13:05:20;;;;;;;4.22;2.13;;;;;;;21.52;53.78;102178.44;6250425;28;20080;-80
2021/09/06 13:08:22;;;;;;;3.40;1.85;;;;;;;21.53;56.71;102182.84;6251206;28;20057;-80
2021/09/06 13:11:24;;;;;;;3.42;2.13;;;;;;;21.51;55.56;102171.38;6250979;28;20049;-81
2021/09/06 13:14:26;;;;;;;2.83;1.85;;;;;;;21.61;54.24;102176.88;6250907;28;20137;-80
2021/09/06 13:17:28;;;;;;;3.03;1.88;;;;;;;21.68;59.38;102171.91;6250924;28;20420;-81
2021/09/06 13:20:30;;;;;;;2.75;1.95;;;;;;;21.91;58.81;102168.28;6251496;28;20041;-79
2021/09/06 13:23:32;;;;;;;4.22;2.13;;;;;;;22.12;54.56;102168.47;6251552;28;20049;-80
2021/09/06 13:26:34;;;;;;;3.00;1.83;;;;;;;22.16;55.26;102166.38;6252422;28;20049;-80
2021/09/06 13:29:35;;;;;;;4.07;2.17;;;;;;;22.25;54.67;102163.81;6251225;28;20404;-80
2021/09/06 13:32:36;;;;;;;5.35;2.20;;;;;;;22.05;56.38;102161.84;6251420;28;20053;-81
2021/09/06 13:35:38;;;;;;;5.78;2.28;;;;;;;22.37;52.14;102167.34;6250850;28;20053;-80
2021/09/06 13:38:41;;;;;;;3.22;2.10;;;;;;;22.08;55.99;102163.44;6248116;28;20412;-80
2021/09/06 13:41:42;;;;;;;4.03;2.30;;;;;;;22.07;54.80;102154.53;6250215;28;20049;-79
2021/09/06 13:44:44;;;;;;;3.75;2.00;;;;;;;22.15;55.13;102153.97;6250958;28;20544;-80
2021/09/06 13:47:45;;;;;;;4.65;2.40;;;;;;;22.43;56.29;102155.25;6248396;28;20049;-79
2021/09/06 13:50:46;;;;;;;5.03;2.50;;;;;;;22.51;54.46;102153.66;6250444;28;20048;-80
2021/09/06 13:53:49;;;;;;;5.03;2.25;;;;;;;22.63;54.07;102150.97;6250196;28;20049;-79
2021/09/06 13:56:51;;;;;;;5.25;2.25;;;;;;;22.68;52.35;102136.22;6250744;28;20046;-78
2021/09/06 13:59:52;;;;;;;4.22;2.17;;;;;;;22.48;56.63;102145.91;6250818;28;20539;-79